Time;durP1;ratioP1;P1;durP2;ratioP2;P2;SDS_P1;SDS_P2;PMS_P1;PMS_P2;Temp;Humidity;BMP_temperature;BMP_pressure;BME280_temperature;BME280_humidity;BME280_pressure;Samples;Min_cycle;Max_cycle;Signal;HPM_P1;HPM_P2
2023/08/24 00:02:27;;;;;;;1.62;1.05;;;;;;;25.82;62.35;99971.81;4386637;32;34327;-89
2023/08/24 00:04:56;;;;;;;0.62;0.62;;;;;;;25.77;62.48;99959.62;4404921;32;31603;-89
2023/08/24 00:07:24;;;;;;;1.25;1.15;;;;;;;25.96;61.73;99965.81;4375894;32;33025;-90
2023/08/24 00:09:53;;;;;;;2.33;2.05;;;;;;;25.81;62.07;99964.72;4385146;32;33594;-90
2023/08/24 00:12:21;;;;;;;1.62;1.52;;;;;;;25.61;62.96;99956.81;4391728;32;33713;-90
2023/08/24 00:14:49;;;;;;;1.95;1.17;;;;;;;25.62;63.14;99958.50;4389799;32;33118;-88
2023/08/24 00:17:16;;;;;;;2.30;1.55;;;;;;;25.69;62.63;99954.16;4401321;32;33951;-88
2023/08/24 00:19:46;;;;;;;4.07;1.70;;;;;;;25.61;62.91;99955.97;4374279;32;32933;-89
2023/08/24 00:22:14;;;;;;;1.80;0.70;;;;;;;25.59;62.90;99955.25;4398062;32;34036;-89
2023/08/24 00:24:41;;;;;;;1.20;1.10;;;;;;;25.47;63.41;99968.19;4391702;32;32992;-90
2023/08/24 00:27:10;;;;;;;1.58;1.48;;;;;;;25.58;63.17;99973.34;4398951;32;33104;-90
2023/08/24 00:29:37;;;;;;;0.90;0.80;;;;;;;25.51;62.84;99966.88;4386136;32;35482;-89
2023/08/24 00:32:05;;;;;;;1.37;1.27;;;;;;;25.36;63.69;99958.50;4403604;32;33188;-90
2023/08/24 00:34:33;;;;;;;1.45;1.33;;;;;;;25.38;63.73;99959.19;4404703;32;32885;-90
2023/08/24 00:37:00;;;;;;;1.25;1.15;;;;;;;25.20;64.40;99970.03;4379369;32;33873;-90
2023/08/24 00:39:29;;;;;;;2.05;1.27;;;;;;;25.56;62.70;99952.88;4404679;32;34118;-91
2023/08/24 00:41:57;;;;;;;1.90;1.55;;;;;;;25.20;63.81;99959.22;4392449;32;32933;-90
2023/08/24 00:44:25;;;;;;;1.20;1.20;;;;;;;25.19;64.00;99960.22;4403670;32;32143;-90
2023/08/24 00:46:52;;;;;;;1.92;0.93;;;;;;;25.32;63.60;99961.69;4383454;32;34375;-90
2023/08/24 00:49:22;;;;;;;1.65;1.27;;;;;;;25.20;64.06;99959.22;4395773;32;33822;-90
2023/08/24 00:51:49;;;;;;;4.70;2.22;;;;;;;25.16;64.36;99962.37;4402614;32;33679;-90
2023/08/24 00:54:17;;;;;;;2.05;1.95;;;;;;;25.24;64.01;99982.22;4377955;32;31817;-89
2023/08/24 00:56:45;;;;;;;0.93;0.88;;;;;;;25.22;63.91;99970.72;4403636;32;33193;-89
2023/08/24 00:59:13;;;;;;;1.77;0.95;;;;;;;25.16;64.09;99976.78;4371756;32;32685;-89
2023/08/24 01:01:41;;;;;;;2.28;1.42;;;;;;;25.09;64.35;99981.09;4395929;32;33820;-89
2023/08/24 01:04:12;;;;;;;6.13;2.97;;;;;;;25.05;64.25;99982.38;4378513;32;32423;-89
2023/08/24 01:06:40;;;;;;;2.15;1.37;;;;;;;25.00;64.43;99984.69;4379332;32;33440;-89
2023/08/24 01:09:08;;;;;;;1.58;0.98;;;;;;;25.08;64.12;99981.25;4404143;32;33098;-89
2023/08/24 01:12:01;;;;;;;1.40;1.30;;;;;;;25.00;64.50;99982.00;4410116;32;33726;-88
2023/08/24 01:14:59;;;;;;;4.25;1.90;;;;;;;24.98;64.60;99975.91;4406010;32;32063;-87
2023/08/24 01:17:30;;;;;;;1.75;1.52;;;;;;;24.90;64.83;99973.97;4361214;32;35019;-88
2023/08/24 01:19:58;;;;;;;0.50;0.50;;;;;;;24.99;64.53;99969.50;4405987;32;33633;-88
2023/08/24 01:22:26;;;;;;;0.90;0.90;;;;;;;25.00;64.44;99965.78;4403022;32;33959;-88
2023/08/24 01:25:31;;;;;;;2.37;0.77;;;;;;;24.92;64.57;99976.50;4386574;32;34120;-88
2023/08/24 01:27:59;;;;;;;1.00;0.95;;;;;;;24.93;64.66;99964.72;4373810;32;33249;-87
2023/08/24 01:30:28;;;;;;;1.95;1.83;;;;;;;25.03;64.08;99957.38;4383823;32;34484;-90
2023/08/24 01:32:56;;;;;;;3.40;1.42;;;;;;;25.10;63.67;99963.87;4396232;32;32750;-89
2023/08/24 01:35:23;;;;;;;2.55;1.73;;;;;;;25.00;64.07;99969.31;4373598;32;32748;-89
2023/08/24 01:37:51;;;;;;;0.88;0.88;;;;;;;25.05;63.74;99971.56;4406456;32;33024;-89
2023/08/24 01:40:42;;;;;;;2.60;1.58;;;;;;;25.05;63.75;99966.16;4404786;32;33602;-89
2023/08/24 01:43:13;;;;;;;0.75;0.75;;;;;;;25.20;63.03;99959.22;4404736;32;32268;-89
2023/08/24 01:45:45;;;;;;;6.60;3.00;;;;;;;25.12;63.16;99961.88;4368558;32;32420;-89
2023/08/24 01:48:13;;;;;;;0.95;0.75;;;;;;;24.83;64.53;99966.62;4375047;32;33225;-89
2023/08/24 01:50:41;;;;;;;3.75;1.42;;;;;;;24.83;64.55;99963.94;4374413;32;34111;-89
2023/08/24 01:53:09;;;;;;;1.62;1.50;;;;;;;24.82;64.61;99963.06;4378420;32;32407;-89
2023/08/24 01:55:37;;;;;;;0.77;0.75;;;;;;;24.83;64.64;99967.50;4374899;32;32721;-89
2023/08/24 01:58:06;;;;;;;3.75;2.75;;;;;;;24.83;64.66;99966.62;4375711;32;32623;-90
2023/08/24 02:00:33;;;;;;;1.73;1.60;;;;;;;24.78;64.98;99967.09;4388289;32;33684;-91
2023/08/24 02:03:04;;;;;;;1.37;1.27;;;;;;;24.85;64.65;99961.94;4405531;32;33415;-91
2023/08/24 02:05:32;;;;;;;2.90;2.20;;;;;;;24.86;64.64;99960.94;4406514;32;32350;-92
2023/08/24 02:08:23;;;;;;;1.33;1.23;;;;;;;24.87;64.78;99962.63;4391313;32;33384;-91
2023/08/24 02:10:52;;;;;;;2.75;2.22;;;;;;;24.80;65.14;99966.97;4393435;32;33294;-91
2023/08/24 02:13:44;;;;;;;2.17;1.33;;;;;;;24.83;65.04;99955.81;4371377;32;32419;-91
2023/08/24 02:16:56;;;;;;;1.27;1.17;;;;;;;24.80;65.13;99954.28;4393557;32;32019;-91
2023/08/24 02:19:34;;;;;;;1.15;1.10;;;;;;;24.70;65.61;99953.53;4392384;32;33212;-91
2023/08/24 02:22:43;;;;;;;2.37;1.45;;;;;;;24.72;65.65;99955.06;4367629;32;32930;-91
2023/08/24 02:25:31;;;;;;;1.77;0.95;;;;;;;24.83;65.46;99951.28;4368915;32;32407;-91
2023/08/24 02:28:17;;;;;;;1.42;1.30;;;;;;;25.02;64.53;99955.69;4382184;32;33658;-91
2023/08/24 02:30:50;;;;;;;3.15;0.85;;;;;;;24.88;65.32;99953.53;4368741;32;32992;-92
2023/08/24 02:33:58;;;;;;;3.62;1.73;;;;;;;24.90;65.27;99952.34;4373756;32;32662;-91
2023/08/24 02:36:26;;;;;;;2.15;1.95;;;;;;;24.84;65.59;99952.16;4385119;32;33557;-91
2023/08/24 02:38:56;;;;;;;0.95;0.95;;;;;;;25.05;64.72;99949.94;4368630;32;32270;-91
2023/08/24 02:41:24;;;;;;;1.83;1.33;;;;;;;24.95;64.99;99949.19;4384095;32;33214;-91
2023/08/24 02:43:52;;;;;;;1.95;1.73;;;;;;;24.93;65.06;99948.50;4369908;32;33355;-91
2023/08/24 02:46:21;;;;;;;1.30;1.25;;;;;;;24.95;65.12;99954.59;4367798;32;32773;-91
2023/08/24 02:49:15;;;;;;;1.90;0.90;;;;;;;24.87;65.09;99951.81;4376032;32;33383;-92
2023/08/24 02:52:06;;;;;;;2.40;2.03;;;;;;;24.75;65.55;99956.63;4379177;32;33018;-91
2023/08/24 02:54:34;;;;;;;1.58;0.75;;;;;;;24.81;65.34;99958.69;4377241;32;32625;-89
2023/08/24 02:57:01;;;;;;;0.85;0.85;;;;;;;24.86;65.27;99960.94;4389471;32;34153;-89
2023/08/24 02:59:29;;;;;;;3.00;1.12;;;;;;;24.97;64.86;99955.28;4394776;32;33840;-89
2023/08/24 03:01:58;;;;;;;1.25;1.15;;;;;;;25.01;64.73;99953.97;4374193;32;33006;-89
2023/08/24 03:04:25;;;;;;;2.08;1.27;;;;;;;25.06;64.51;99957.03;4401847;32;32980;-89
2023/08/24 03:06:53;;;;;;;1.50;1.40;;;;;;;24.98;64.75;99951.59;4380541;32;33045;-90
2023/08/24 03:09:21;;;;;;;1.27;1.17;;;;;;;25.10;64.21;99952.22;4392156;32;32968;-90
2023/08/24 03:11:49;;;;;;;1.60;1.15;;;;;;;25.11;64.07;99949.34;4375876;32;33917;-90
2023/08/24 03:14:18;;;;;;;1.27;0.57;;;;;;;25.09;64.25;99950.53;4376673;32;32545;-90
2023/08/24 03:16:46;;;;;;;1.92;1.83;;;;;;;25.11;64.07;99952.03;4376281;32;32355;-90
2023/08/24 03:19:14;;;;;;;0.52;0.52;;;;;;;25.06;64.17;99946.22;4376369;32;31948;-90
2023/08/24 03:21:43;;;;;;;1.27;1.17;;;;;;;25.05;64.28;99947.25;4388566;32;34497;-89
2023/08/24 03:24:11;;;;;;;3.62;0.98;;;;;;;25.15;63.88;99950.72;4375554;32;34421;-88
2023/08/24 03:26:39;;;;;;;2.20;1.33;;;;;;;25.09;63.70;99953.22;4374957;32;32822;-89
2023/08/24 03:29:08;;;;;;;1.58;0.80;;;;;;;24.96;64.09;99953.59;4376199;32;31851;-89
2023/08/24 03:31:35;;;;;;;1.25;1.20;;;;;;;25.02;64.00;99952.97;4388880;32;32834;-89
2023/08/24 03:34:04;;;;;;;1.08;1.05;;;;;;;24.95;64.25;99951.91;4373617;32;33122;-89
2023/08/24 03:36:32;;;;;;;1.08;0.98;;;;;;;25.06;63.73;99954.34;4376486;32;32999;-89
2023/08/24 03:38:59;;;;;;;1.27;1.17;;;;;;;24.94;64.16;99952.91;4374948;32;33144;-89
2023/08/24 03:41:29;;;;;;;1.55;1.17;;;;;;;24.91;64.37;99959.44;4395767;32;32701;-90
2023/08/24 03:43:58;;;;;;;2.03;1.60;;;;;;;24.77;64.83;99960.84;4388594;32;33859;-89
2023/08/24 03:46:25;;;;;;;1.10;1.10;;;;;;;24.82;64.74;99963.06;4376077;32;33768;-90
2023/08/24 03:48:53;;;;;;;0.55;0.55;;;;;;;24.86;64.45;99966.31;4388821;32;34204;-90
2023/08/24 03:51:21;;;;;;;2.15;1.20;;;;;;;24.80;64.70;99964.25;4375315;32;32433;-90
2023/08/24 03:53:49;;;;;;;6.90;1.65;;;;;;;24.84;64.42;99963.78;4383790;32;32453;-90
2023/08/24 03:56:17;;;;;;;16.30;1.62;;;;;;;24.80;64.63;99961.56;4375433;32;33617;-90
2023/08/24 03:58:45;;;;;;;1.15;1.00;;;;;;;24.86;64.43;99969.03;4375176;32;32500;-90
2023/08/24 04:01:13;;;;;;;1.37;1.27;;;;;;;24.89;64.14;99966.03;4376223;32;34625;-89
2023/08/24 04:03:42;;;;;;;2.08;1.80;;;;;;;24.83;64.28;99969.31;4388259;32;34304;-90
2023/08/24 04:06:09;;;;;;;2.80;1.20;;;;;;;24.84;64.03;99968.34;4376211;32;33205;-89
2023/08/24 04:08:37;;;;;;;2.20;1.50;;;;;;;24.86;63.86;99966.31;4388422;32;33414;-90
2023/08/24 04:11:06;;;;;;;1.27;1.00;;;;;;;24.76;64.25;99966.41;4391701;32;33826;-90
2023/08/24 04:13:34;;;;;;;3.17;1.92;;;;;;;24.78;64.35;99964.38;4376204;32;33270;-89
2023/08/24 04:16:03;;;;;;;1.45;1.35;;;;;;;24.82;64.27;99968.47;4376226;32;33394;-90
2023/08/24 04:18:31;;;;;;;1.90;1.25;;;;;;;24.77;64.51;99966.25;4376068;32;32564;-90
2023/08/24 04:20:59;;;;;;;0.93;0.90;;;;;;;24.81;64.51;99974.03;4388092;32;32855;-88
2023/08/24 04:23:27;;;;;;;1.55;1.45;;;;;;;24.94;63.81;99969.13;4373938;32;33729;-88
2023/08/24 04:25:56;;;;;;;1.95;1.85;;;;;;;24.79;64.39;99966.09;4388305;32;32118;-88
2023/08/24 04:28:23;;;;;;;1.35;1.25;;;;;;;24.88;64.24;99967.88;4375692;32;32274;-88
2023/08/24 04:30:55;;;;;;;1.58;1.12;;;;;;;24.86;64.33;99966.31;4375947;32;33129;-89
2023/08/24 04:33:24;;;;;;;2.10;1.90;;;;;;;24.82;64.32;99968.47;4375510;32;33235;-90
2023/08/24 04:35:51;;;;;;;1.15;1.15;;;;;;;24.80;64.55;99973.19;4375952;32;34549;-86
2023/08/24 04:38:19;;;;;;;1.33;1.20;;;;;;;24.93;64.32;99968.25;4376303;32;32989;-86
2023/08/24 04:40:53;;;;;;;2.70;1.37;;;;;;;24.90;64.59;99967.72;4375510;32;33169;-87
2023/08/24 04:43:22;;;;;;;0.50;0.50;;;;;;;25.00;64.40;99968.47;4400391;32;35251;-86
2023/08/24 04:45:52;;;;;;;1.62;1.23;;;;;;;25.01;64.60;99971.00;4402495;32;34310;-88
2023/08/24 04:48:21;;;;;;;1.62;1.50;;;;;;;25.09;64.46;99967.59;4393194;32;33356;-89
2023/08/24 04:50:49;;;;;;;1.77;1.33;;;;;;;25.23;64.12;99968.88;4388153;32;33361;-88
2023/08/24 04:53:18;;;;;;;0.90;0.90;;;;;;;25.33;63.66;99980.44;4393007;32;34339;-89
2023/08/24 04:55:46;;;;;;;13.88;2.12;;;;;;;25.52;62.70;99973.97;4397172;32;35046;-88
2023/08/24 04:58:13;;;;;;;1.92;1.77;;;;;;;25.57;62.46;99987.03;4392893;32;33427;-89
2023/08/24 05:00:42;;;;;;;0.85;0.85;;;;;;;25.58;62.67;99977.91;4391975;32;32929;-88
2023/08/24 05:03:10;;;;;;;1.50;1.40;;;;;;;25.62;62.30;99980.13;4380000;32;33026;-89
2023/08/24 05:05:38;;;;;;;2.22;1.48;;;;;;;25.60;62.06;99984.84;4380178;32;34539;-89
2023/08/24 05:08:09;;;;;;;0.82;0.82;;;;;;;25.71;61.80;99989.12;4379145;32;32497;-89
2023/08/24 05:10:39;;;;;;;0.93;0.85;;;;;;;25.65;62.18;99995.19;4392910;32;33540;-89
2023/08/24 05:13:07;;;;;;;0.95;0.95;;;;;;;25.84;61.58;99988.75;4388193;32;33119;-89
2023/08/24 05:15:35;;;;;;;2.55;1.15;;;;;;;25.89;61.28;99986.41;4392352;32;33491;-89
2023/08/24 05:18:03;;;;;;;2.15;1.95;;;;;;;25.81;61.46;99991.75;4380684;32;33305;-88
2023/08/24 05:20:32;;;;;;;2.25;2.03;;;;;;;25.81;61.29;99997.19;4377076;32;97898;-90
2023/08/24 05:23:00;;;;;;;0.93;0.70;;;;;;;25.97;60.88;100005.38;4392414;32;34380;-89
2023/08/24 05:25:28;;;;;;;2.28;1.37;;;;;;;26.04;60.73;99995.63;4379661;32;33712;-89
2023/08/24 05:27:56;;;;;;;2.50;2.03;;;;;;;26.10;60.72;99997.66;4391564;32;33171;-89
2023/08/24 05:30:24;;;;;;;1.65;1.42;;;;;;;26.22;60.37;99993.66;4379667;32;34144;-89
2023/08/24 05:32:53;;;;;;;0.73;0.73;;;;;;;26.36;60.06;100004.88;4404833;32;33051;-89
2023/08/24 05:35:22;;;;;;;2.90;2.42;;;;;;;26.45;59.86;99998.53;4379930;32;33154;-88
2023/08/24 05:37:50;;;;;;;1.62;1.20;;;;;;;26.51;59.79;100008.69;4391625;32;33305;-89
2023/08/24 05:40:18;;;;;;;2.55;2.12;;;;;;;26.37;60.08;100010.13;4391389;32;32994;-89
2023/08/24 05:42:46;;;;;;;1.62;1.52;;;;;;;26.48;59.78;100009.00;4367219;32;34137;-89
2023/08/24 05:45:13;;;;;;;2.20;1.55;;;;;;;26.52;59.68;100007.66;4392138;32;33552;-89
2023/08/24 05:47:41;;;;;;;1.55;1.45;;;;;;;26.66;59.57;100004.31;4390018;32;30912;-87
2023/08/24 05:50:11;;;;;;;0.82;0.82;;;;;;;26.72;59.43;100006.34;4404428;32;32916;-88
2023/08/24 05:52:39;;;;;;;1.67;1.58;;;;;;;26.87;59.13;99997.59;4377838;32;33201;-90
2023/08/24 05:55:07;;;;;;;1.15;0.75;;;;;;;27.24;58.10;100000.69;4378941;32;33404;-88
2023/08/24 05:57:36;;;;;;;1.08;0.90;;;;;;;27.16;58.10;100003.41;4375633;32;32943;-88
2023/08/24 06:00:09;;;;;;;2.97;1.30;;;;;;;27.14;57.95;100008.16;4373268;32;33224;-88
2023/08/24 06:02:39;;;;;;;1.85;1.12;;;;;;;27.37;57.40;100010.19;4387965;32;32260;-88
2023/08/24 06:05:07;;;;;;;3.37;2.17;;;;;;;27.48;56.63;100010.66;4387881;32;33318;-88
2023/08/24 06:07:35;;;;;;;2.55;2.00;;;;;;;27.65;56.29;100007.97;4380538;32;32730;-88
2023/08/24 06:10:04;;;;;;;3.17;2.17;;;;;;;27.74;56.07;100007.81;4377028;32;33505;-88
2023/08/24 06:12:32;;;;;;;1.87;1.27;;;;;;;27.83;55.59;100007.78;4373965;32;33715;-88
2023/08/24 06:15:03;;;;;;;1.62;1.10;;;;;;;28.02;55.75;100004.69;4400601;32;34432;-87
2023/08/24 06:17:35;;;;;;;1.65;1.55;;;;;;;28.35;55.25;100007.31;4391738;32;33455;-88
2023/08/24 06:20:03;;;;;;;1.40;1.30;;;;;;;28.23;54.37;100004.91;4401302;32;33825;-88
2023/08/24 06:22:33;;;;;;;1.17;0.93;;;;;;;28.50;54.75;99997.38;4387574;32;35214;-88
2023/08/24 06:25:01;;;;;;;0.80;0.80;;;;;;;28.40;54.94;100004.91;4380600;32;33573;-89
2023/08/24 06:27:28;;;;;;;1.98;1.70;;;;;;;28.75;53.88;100007.06;4388988;32;33362;-89
2023/08/24 06:29:56;;;;;;;0.77;0.77;;;;;;;29.03;51.37;99999.25;4386262;32;34368;-89
2023/08/24 06:32:24;;;;;;;1.30;1.12;;;;;;;28.94;52.92;100004.91;4386276;32;34111;-88
2023/08/24 06:34:52;;;;;;;1.73;1.20;;;;;;;29.23;51.38;99999.59;4370708;32;31288;-89
2023/08/24 06:37:20;;;;;;;1.08;1.02;;;;;;;28.89;51.71;100007.31;4401112;32;35000;-88
2023/08/24 06:39:49;;;;;;;1.12;1.02;;;;;;;28.99;51.34;100007.97;4378076;32;34947;-89
2023/08/24 06:42:17;;;;;;;1.12;0.82;;;;;;;28.78;52.47;100005.88;4376869;32;34078;-89
2023/08/24 06:44:49;;;;;;;1.05;0.95;;;;;;;29.07;52.57;99999.75;4382617;32;32549;-89
2023/08/24 06:47:17;;;;;;;1.63;1.23;;;;;;;29.11;52.75;100005.69;4374643;32;31947;-89
2023/08/24 06:49:45;;;;;;;2.70;1.62;;;;;;;29.51;51.15;99996.28;4364603;32;32838;-89
2023/08/24 06:52:13;;;;;;;2.83;1.50;;;;;;;29.74;50.72;100002.56;4377638;32;33423;-88
2023/08/24 06:54:41;;;;;;;2.40;1.92;;;;;;;29.32;51.45;99998.50;4378329;32;33081;-89
2023/08/24 06:57:10;;;;;;;1.42;1.35;;;;;;;29.50;51.11;99995.47;4378208;32;32857;-89
2023/08/24 06:59:37;;;;;;;1.33;1.23;;;;;;;29.93;50.72;99994.88;4363640;32;33281;-89
2023/08/24 07:02:05;;;;;;;1.35;1.25;;;;;;;30.05;49.06;99993.34;4376871;32;33280;-89
2023/08/24 07:04:34;;;;;;;2.53;1.25;;;;;;;29.47;51.28;99989.53;4383921;32;32749;-89
2023/08/24 07:07:01;;;;;;;4.55;1.42;;;;;;;29.77;51.59;99987.75;4376824;32;33642;-89
2023/08/24 07:09:29;;;;;;;1.08;1.02;;;;;;;30.22;49.97;99994.06;4362603;32;32940;-89
2023/08/24 07:11:58;;;;;;;2.35;1.55;;;;;;;30.32;50.05;99989.16;4374720;32;33455;-89
2023/08/24 07:14:25;;;;;;;2.28;1.35;;;;;;;30.08;49.73;99996.56;4389927;32;34136;-89
2023/08/24 07:16:53;;;;;;;3.35;1.98;;;;;;;30.10;49.28;99997.22;4365263;32;32844;-89
2023/08/24 07:19:21;;;;;;;1.08;1.05;;;;;;;30.40;48.21;99991.78;4363168;32;32679;-89
2023/08/24 07:21:48;;;;;;;1.98;1.37;;;;;;;30.31;47.73;100006.53;4378424;32;34508;-89
2023/08/24 07:24:18;;;;;;;1.48;0.88;;;;;;;30.60;47.62;100002.91;4382375;32;34328;-89
2023/08/24 07:27:03;;;;;;;0.47;0.47;;;;;;;30.54;48.12;99999.06;4387912;32;32148;-88
2023/08/24 07:29:31;;;;;;;1.33;0.98;;;;;;;30.31;47.88;100001.91;4372363;32;33740;-86
2023/08/24 07:31:59;;;;;;;0.60;0.60;;;;;;;30.54;46.19;99993.63;4373767;32;33489;-87
2023/08/24 07:34:29;;;;;;;2.12;1.77;;;;;;;30.64;46.23;99998.75;4387182;32;33250;-87
2023/08/24 07:36:57;;;;;;;3.62;1.40;;;;;;;31.06;46.40;99991.69;4394471;32;34979;-87
2023/08/24 07:39:24;;;;;;;3.70;2.22;;;;;;;30.81;45.94;99992.06;4401244;32;34301;-87
2023/08/24 07:41:52;;;;;;;1.35;1.00;;;;;;;30.93;44.66;99988.81;4388292;32;33967;-87
2023/08/24 07:44:20;;;;;;;3.45;1.75;;;;;;;30.94;44.01;99993.22;4383688;32;33193;-87
2023/08/24 07:46:49;;;;;;;0.90;0.90;;;;;;;31.33;44.10;99993.66;4375093;32;34011;-87
2023/08/24 07:49:17;;;;;;;1.35;1.25;;;;;;;31.06;42.78;99991.69;4400673;32;34046;-87
2023/08/24 07:51:47;;;;;;;1.17;1.08;;;;;;;31.52;44.10;99994.81;4398194;32;34767;-87
2023/08/24 07:54:15;;;;;;;1.02;1.02;;;;;;;31.63;43.81;99993.44;4400160;32;34050;-87
2023/08/24 07:56:43;;;;;;;17.58;1.73;;;;;;;31.53;43.27;100001.16;4379917;32;34149;-87
2023/08/24 07:59:10;;;;;;;1.90;1.80;;;;;;;31.63;43.31;99993.44;4375888;32;33561;-87
2023/08/24 08:01:38;;;;;;;2.12;0.98;;;;;;;31.57;43.89;99995.09;4381446;32;32902;-87
2023/08/24 08:04:06;;;;;;;2.53;1.95;;;;;;;31.47;44.08;99999.19;4387717;32;32481;-87
2023/08/24 08:06:34;;;;;;;1.00;0.95;;;;;;;31.50;42.85;99993.34;4387942;32;33351;-87
2023/08/24 08:09:02;;;;;;;0.95;0.95;;;;;;;31.62;42.53;99991.78;4375974;32;32780;-87
2023/08/24 08:11:30;;;;;;;1.58;1.48;;;;;;;31.74;43.18;99992.03;4400341;32;34035;-87
2023/08/24 08:13:58;;;;;;;1.67;1.58;;;;;;;31.70;42.60;99991.59;4375089;32;33031;-87
2023/08/24 08:16:26;;;;;;;0.90;0.90;;;;;;;32.03;43.36;100000.03;4375125;32;33418;-87
2023/08/24 08:18:54;;;;;;;2.40;1.87;;;;;;;31.89;43.93;99997.41;4400290;32;33598;-87
2023/08/24 08:21:23;;;;;;;1.33;1.15;;;;;;;32.08;43.44;100004.88;4374831;32;34781;-87
2023/08/24 08:23:50;;;;;;;0.85;0.77;;;;;;;32.01;42.59;100004.03;4388472;32;33117;-87
2023/08/24 08:26:18;;;;;;;1.25;0.90;;;;;;;32.31;42.30;100005.41;4382265;32;32349;-87
2023/08/24 08:28:46;;;;;;;1.48;1.37;;;;;;;32.48;42.61;100005.97;4374146;32;33138;-87
2023/08/24 08:31:13;;;;;;;1.42;1.35;;;;;;;32.41;42.43;100007.81;4382605;32;33331;-87
2023/08/24 08:33:41;;;;;;;11.07;1.33;;;;;;;32.64;40.03;100012.94;4374558;32;33753;-87
2023/08/24 08:36:09;;;;;;;1.12;1.02;;;;;;;32.47;39.83;99998.78;4385238;32;33330;-88
2023/08/24 08:38:37;;;;;;;0.55;0.55;;;;;;;32.77;39.97;100002.06;4373987;32;32492;-87
2023/08/24 08:41:05;;;;;;;1.65;1.55;;;;;;;32.66;40.32;100005.38;4376131;32;33144;-87
2023/08/24 08:43:32;;;;;;;2.03;1.60;;;;;;;32.96;38.80;99999.59;4386453;32;32682;-87
2023/08/24 08:46:00;;;;;;;0.70;0.70;;;;;;;32.56;40.51;99994.81;4387877;32;33014;-87
2023/08/24 08:48:31;;;;;;;1.40;0.93;;;;;;;32.52;39.44;99993.56;4387109;32;31943;-87
2023/08/24 08:51:01;;;;;;;1.75;1.65;;;;;;;32.39;40.09;99998.16;4386319;32;33844;-87
2023/08/24 08:53:29;;;;;;;1.52;0.95;;;;;;;32.78;38.57;100000.16;4377511;32;32674;-87
2023/08/24 08:56:03;;;;;;;2.15;1.92;;;;;;;33.02;38.70;99987.81;4373030;32;33292;-87
2023/08/24 08:58:34;;;;;;;1.90;1.55;;;;;;;32.96;37.28;99994.13;4393782;32;33629;-87
2023/08/24 09:01:04;;;;;;;0.70;0.70;;;;;;;33.16;37.94;99986.78;4373464;32;31900;-87
2023/08/24 09:03:33;;;;;;;1.33;1.12;;;;;;;33.48;37.56;99982.41;4373525;32;32922;-87
2023/08/24 09:06:01;;;;;;;2.10;1.05;;;;;;;33.46;36.80;99983.66;4398195;32;32890;-87
2023/08/24 09:08:29;;;;;;;3.83;2.17;;;;;;;33.23;37.37;99975.81;4374890;32;34017;-87
2023/08/24 09:10:58;;;;;;;1.90;1.77;;;;;;;33.53;38.20;99973.56;4384370;32;34114;-87
2023/08/24 09:13:26;;;;;;;0.77;0.47;;;;;;;33.07;36.83;99979.81;4359378;32;32810;-87
2023/08/24 09:16:06;;;;;;;2.10;1.85;;;;;;;33.36;37.22;99973.09;4378502;32;32636;-87
2023/08/24 09:18:38;;;;;;;0.62;0.62;;;;;;;33.39;36.32;99976.25;4385727;32;33358;-87
2023/08/24 09:21:09;;;;;;;0.98;0.70;;;;;;;33.58;35.89;99974.59;4372883;32;33249;-87
2023/08/24 09:23:43;;;;;;;1.30;1.05;;;;;;;33.30;35.73;99969.31;4371411;32;33887;-87
2023/08/24 09:26:10;;;;;;;0.80;0.60;;;;;;;33.31;36.51;99964.69;4384724;32;33282;-87
2023/08/24 09:28:42;;;;;;;0.77;0.60;;;;;;;33.94;35.13;99967.75;4372732;32;32171;-85
2023/08/24 09:31:11;;;;;;;2.53;0.90;;;;;;;33.84;37.15;99965.47;4374325;32;32279;-86
2023/08/24 09:33:44;;;;;;;2.00;1.12;;;;;;;34.00;34.01;99968.84;4378064;32;32898;-87
2023/08/24 09:36:14;;;;;;;1.55;1.20;;;;;;;33.94;34.52;99964.19;4387618;32;32669;-86
2023/08/24 09:38:50;;;;;;;1.20;0.68;;;;;;;33.98;34.59;99960.00;4389545;32;31836;-87
2023/08/24 09:41:17;;;;;;;1.52;1.20;;;;;;;34.14;33.68;99959.53;4402016;32;34026;-87
2023/08/24 09:43:46;;;;;;;0.62;0.62;;;;;;;33.98;33.17;99958.09;4388863;32;34297;-87
2023/08/24 09:46:18;;;;;;;0.77;0.68;;;;;;;34.18;33.13;99958.00;4390509;32;32625;-87
2023/08/24 09:48:53;;;;;;;1.08;0.70;;;;;;;34.02;33.12;99950.28;4389480;32;34314;-87
2023/08/24 09:51:21;;;;;;;0.50;0.50;;;;;;;34.04;33.38;99953.63;4380657;32;33713;-87
2023/08/24 09:53:49;;;;;;;1.70;1.23;;;;;;;34.02;33.67;99955.78;4391273;32;34005;-87
2023/08/24 09:56:17;;;;;;;1.33;1.23;;;;;;;34.64;33.04;99956.97;4377590;32;32357;-88
2023/08/24 09:58:46;;;;;;;2.70;1.70;;;;;;;34.80;33.23;99950.13;4400511;32;33350;-87
2023/08/24 10:01:14;;;;;;;1.73;1.00;;;;;;;34.45;31.93;99953.25;4374756;32;32508;-87
2023/08/24 10:03:43;;;;;;;2.00;1.37;;;;;;;34.55;30.67;99953.66;4386935;32;34124;-87
2023/08/24 10:06:11;;;;;;;1.45;1.35;;;;;;;34.63;30.16;99949.81;4376819;32;32864;-87
2023/08/24 10:08:47;;;;;;;4.53;1.77;;;;;;;34.52;30.21;99945.03;4375952;32;33916;-87
2023/08/24 10:11:17;;;;;;;1.73;0.77;;;;;;;34.47;29.80;99958.53;4387009;32;34329;-88
2023/08/24 10:14:02;;;;;;;1.48;1.30;;;;;;;34.90;29.84;99947.75;4387093;32;33839;-88
2023/08/24 10:16:30;;;;;;;1.35;1.33;;;;;;;35.18;29.29;99950.06;4388560;32;32610;-88
2023/08/24 10:18:59;;;;;;;1.33;1.05;;;;;;;35.16;29.22;99946.72;4399658;32;34827;-87
2023/08/24 10:21:28;;;;;;;0.90;0.85;;;;;;;34.35;29.50;99948.25;4383299;32;31262;-88
2023/08/24 10:23:57;;;;;;;2.87;1.08;;;;;;;34.94;29.28;99948.97;4387109;32;33799;-87
2023/08/24 10:26:26;;;;;;;0.65;0.65;;;;;;;35.17;30.57;99945.66;4380777;32;32882;-87
2023/08/24 10:28:55;;;;;;;1.23;0.82;;;;;;;35.27;28.53;99935.00;4387004;32;33708;-86
2023/08/24 10:31:23;;;;;;;1.33;1.20;;;;;;;34.84;30.95;99935.75;4389657;32;34417;-87
2023/08/24 10:33:51;;;;;;;3.42;1.10;;;;;;;34.79;30.70;99935.56;4364353;32;32516;-87
2023/08/24 10:36:19;;;;;;;1.33;0.98;;;;;;;34.76;30.29;99925.06;4389214;32;33974;-87
2023/08/24 10:38:48;;;;;;;1.60;1.50;;;;;;;34.84;30.00;99927.50;4385279;32;35001;-87
2023/08/24 10:41:15;;;;;;;1.42;1.33;;;;;;;34.85;29.54;99926.47;4387789;32;33517;-87
2023/08/24 10:43:50;;;;;;;1.45;1.00;;;;;;;34.84;29.06;99913.78;4393647;32;32883;-87
2023/08/24 10:46:18;;;;;;;1.25;1.15;;;;;;;35.42;29.51;99915.47;4398745;32;33113;-87
2023/08/24 10:48:49;;;;;;;0.55;0.55;;;;;;;35.61;27.53;99917.19;4385778;32;32854;-87
2023/08/24 10:51:21;;;;;;;0.80;0.80;;;;;;;35.11;28.52;99913.62;4382705;32;32420;-87
2023/08/24 10:53:55;;;;;;;4.97;0.95;;;;;;;35.16;29.26;99919.28;4387254;32;32966;-86
2023/08/24 10:56:36;;;;;;;1.10;0.80;;;;;;;35.31;29.13;99914.28;4375904;32;30933;-86
2023/08/24 10:59:14;;;;;;;2.03;1.02;;;;;;;35.03;29.55;99905.66;4400809;32;34574;-86
2023/08/24 11:01:44;;;;;;;1.77;1.58;;;;;;;35.20;29.49;99912.28;4375510;32;33294;-87
2023/08/24 11:04:19;;;;;;;1.27;0.93;;;;;;;35.16;29.58;99908.28;4374840;32;33315;-87
2023/08/24 11:06:57;;;;;;;0.75;0.75;;;;;;;35.66;29.34;99913.75;4385822;32;32428;-86
2023/08/24 11:09:27;;;;;;;1.95;1.20;;;;;;;35.43;29.26;99913.53;4391739;32;33270;-87
2023/08/24 11:12:00;;;;;;;0.70;0.70;;;;;;;35.54;28.49;99912.81;4373996;32;34461;-87
2023/08/24 11:14:30;;;;;;;1.05;1.00;;;;;;;35.34;29.44;99916.56;4379892;32;32847;-87
2023/08/24 11:17:00;;;;;;;0.70;0.70;;;;;;;35.91;28.37;99902.69;4401673;32;32924;-87
2023/08/24 11:19:30;;;;;;;1.17;1.12;;;;;;;35.99;28.61;99912.53;4375748;32;33350;-87
2023/08/24 11:21:59;;;;;;;1.15;0.80;;;;;;;35.86;29.31;99914.34;4366253;32;32622;-87
2023/08/24 11:24:26;;;;;;;2.05;1.05;;;;;;;35.96;27.96;99913.03;4374397;32;33184;-87
2023/08/24 11:26:55;;;;;;;0.85;0.80;;;;;;;36.21;27.92;99910.16;4376010;32;32364;-87
2023/08/24 11:29:24;;;;;;;0.88;0.77;;;;;;;36.47;28.02;99909.00;4389523;32;35151;-86
2023/08/24 11:31:52;;;;;;;0.98;0.82;;;;;;;36.09;28.51;99908.19;4387810;32;33049;-87
2023/08/24 11:34:20;;;;;;;1.37;0.95;;;;;;;35.84;29.18;99904.66;4375428;32;30446;-87
2023/08/24 11:36:48;;;;;;;7.95;2.50;;;;;;;36.37;27.45;99904.03;4375552;32;32264;-87
2023/08/24 11:39:19;;;;;;;0.90;0.90;;;;;;;36.16;29.33;99899.84;4360803;32;32096;-87
2023/08/24 11:42:05;;;;;;;1.02;0.93;;;;;;;36.44;28.54;99898.44;4362204;32;32994;-86
2023/08/24 11:44:48;;;;;;;1.50;1.08;;;;;;;36.33;28.66;99886.31;4375467;32;32850;-87
2023/08/24 11:47:19;;;;;;;3.40;1.42;;;;;;;36.16;28.90;99891.59;4386388;32;32031;-87